Terminal Aerodrome Forecast
Issued by NWS Mt. Holly, NJ

Home | Current Version | Previous Version | Text Only | Print | Product List | Glossary On
Versions: 1 2 3 4 5 6 7 8 9 10 11 12 13 14 15 16 17 18 19 20 21 22 23
106
FTUS41 KPHI 181120
TAFABE
TAF
KABE 181120Z 1812/1912 17008KT P6SM OVC013
     FM181600 18007KT P6SM SCT025 BKN080
     FM182100 19008KT 6SM -SHRA VCTS SCT030CB BKN080 PROB30
      1822/1901 2SM TSRA BKN035CB
     FM190100 VRB03KT P6SM SCT025 OVC050=

USA.gov is the U.S. government's official web portal to all federal, state and local government web resources and services.